Time;durP1;ratioP1;P1;durP2;ratioP2;P2;SDS_P1;SDS_P2;PMS_P1;PMS_P2;Temp;Humidity;BMP_temperature;BMP_pressure;BME280_temperature;BME280_humidity;BME280_pressure;Samples;Min_cycle;Max_cycle;Signal;HPM_P1;HPM_P2
2022/06/12 00:00:31;;;;;;;0.38;0.20;;;;;;;;;;5028816;28;20054;-59
2022/06/12 00:02:58;;;;;;;0.00;0.00;;;;;;;;;;5029510;28;20088;-58
2022/06/12 00:05:26;;;;;;;0.00;0.00;;;;;;;;;;5029501;28;20045;-58
2022/06/12 00:07:52;;;;;;;0.00;0.00;;;;;;;;;;5029491;28;20596;-58
2022/06/12 00:10:19;;;;;;;0.00;0.00;;;;;;;;;;5029060;28;20046;-59
2022/06/12 00:12:46;;;;;;;0.00;0.00;;;;;;;;;;5028466;28;20058;-58
2022/06/12 00:15:15;;;;;;;0.20;0.20;;;;;;;;;;5028854;28;20136;-59
2022/06/12 00:17:43;;;;;;;0.00;0.00;;;;;;;;;;5026339;28;20058;-59
2022/06/12 00:20:11;;;;;;;0.00;0.00;;;;;;;;;;5009190;28;20635;-58
2022/06/12 00:22:38;;;;;;;0.45;0.45;;;;;;;;;;5009462;28;20066;-58
2022/06/12 00:25:06;;;;;;;0.00;0.00;;;;;;;;;;5008288;28;20493;-59
2022/06/12 00:27:33;;;;;;;0.00;0.00;;;;;;;;;;5009532;28;20054;-58
2022/06/12 00:29:59;;;;;;;0.00;0.00;;;;;;;;;;5009207;28;20137;-59
2022/06/12 00:32:28;;;;;;;0.00;0.00;;;;;;;;;;5008561;28;20050;-59
2022/06/12 00:34:56;;;;;;;0.00;0.00;;;;;;;;;;5008717;28;20587;-59
2022/06/12 00:37:23;;;;;;;0.00;0.00;;;;;;;;;;5008596;28;20575;-58
2022/06/12 00:39:50;;;;;;;0.00;0.00;;;;;;;;;;5011135;28;20105;-59
2022/06/12 00:42:19;;;;;;;0.00;0.00;;;;;;;;;;5012615;28;20120;-57
2022/06/12 00:44:46;;;;;;;0.00;0.00;;;;;;;;;;5012244;28;20085;-59
2022/06/12 00:47:13;;;;;;;0.00;0.00;;;;;;;;;;5012549;28;20161;-58
2022/06/12 00:49:40;;;;;;;0.00;0.00;;;;;;;;;;5012273;28;20050;-59
2022/06/12 00:52:11;;;;;;;0.00;0.00;;;;;;;;;;5012264;28;20348;-58
2022/06/12 00:54:39;;;;;;;0.00;0.00;;;;;;;;;;5012549;28;20117;-58
2022/06/12 00:57:07;;;;;;;0.00;0.00;;;;;;;;;;5012069;28;20098;-59
2022/06/12 00:59:39;;;;;;;0.00;0.00;;;;;;;;;;5011900;28;20517;-59
2022/06/12 01:02:07;;;;;;;0.00;0.00;;;;;;;;;;5011088;28;20590;-58
2022/06/12 01:07:21;;;;;;;0.00;0.00;;;;;;;;;;5011764;28;20058;-58
2022/06/12 01:09:47;;;;;;;;;;;;;;;;;;5011827;28;20105;-59
2022/06/12 01:12:16;;;;;;;0.00;0.00;;;;;;;;;;5010233;28;45151;-58
2022/06/12 01:14:45;;;;;;;0.00;0.00;;;;;;;;;;5011393;28;20109;-58
2022/06/12 01:17:11;;;;;;;0.00;0.00;;;;;;;;;;5010221;28;20081;-59
2022/06/12 01:19:47;;;;;;;0.00;0.00;;;;;;;;;;5011209;28;20556;-58
2022/06/12 01:22:32;;;;;;;0.00;0.00;;;;;;;;;;5011259;28;20062;-59
2022/06/12 01:24:58;;;;;;;0.00;0.00;;;;;;;;;;5011970;28;20206;-59
2022/06/12 01:27:43;;;;;;;0.00;0.00;;;;;;;;;;5010543;28;20058;-59
2022/06/12 01:30:17;;;;;;;0.00;0.00;;;;;;;;;;5011003;28;20101;-59
2022/06/12 01:32:57;;;;;;;0.00;0.00;;;;;;;;;;5012091;28;20058;-59
2022/06/12 01:35:47;;;;;;;0.00;0.00;;;;;;;;;;5012141;28;20101;-58
2022/06/12 01:38:18;;;;;;;0.00;0.00;;;;;;;;;;5010923;28;20059;-59
2022/06/12 01:40:53;;;;;;;0.90;0.70;;;;;;;;;;5011102;28;20156;-58
2022/06/12 01:43:24;;;;;;;0.00;0.00;;;;;;;;;;5011760;28;20050;-58
2022/06/12 01:45:53;;;;;;;0.00;0.00;;;;;;;;;;5011799;28;20133;-58
2022/06/12 01:48:24;;;;;;;0.00;0.00;;;;;;;;;;5010692;28;20050;-58
2022/06/12 01:50:56;;;;;;;0.00;0.00;;;;;;;;;;5009926;28;20856;-59
2022/06/12 01:53:23;;;;;;;0.00;0.00;;;;;;;;;;5010669;28;20047;-59
2022/06/12 01:56:01;;;;;;;0.00;0.00;;;;;;;;;;5011534;28;20054;-59
2022/06/12 01:58:34;;;;;;;0.00;0.00;;;;;;;;;;5011117;28;20505;-59
2022/06/12 02:01:16;;;;;;;0.00;0.00;;;;;;;;;;5011097;28;20055;-59
2022/06/12 02:03:50;;;;;;;0.00;0.00;;;;;;;;;;5011451;28;20061;-59
2022/06/12 02:06:23;;;;;;;0.00;0.00;;;;;;;;;;5010478;28;20580;-59
2022/06/12 02:08:53;;;;;;;0.00;0.00;;;;;;;;;;5010986;28;20120;-58
2022/06/12 02:14:12;;;;;;;0.00;0.00;;;;;;;;;;5010745;28;20168;-59
2022/06/12 02:16:39;;;;;;;;;;;;;;;;;;5011070;28;20563;-59
2022/06/12 02:19:10;;;;;;;0.00;0.00;;;;;;;;;;5013998;28;45829;-58
2022/06/12 02:21:48;;;;;;;0.00;0.00;;;;;;;;;;5010621;28;20086;-59
2022/06/12 02:24:15;;;;;;;;;;;;;;;;;;5011473;28;20093;-58
2022/06/12 02:26:49;;;;;;;0.30;0.30;;;;;;;;;;5009899;28;43795;-58
2022/06/12 02:29:18;;;;;;;0.00;0.00;;;;;;;;;;5010783;28;20085;-58
2022/06/12 02:31:46;;;;;;;1.35;0.70;;;;;;;;;;5010939;28;20086;-59
2022/06/12 02:34:12;;;;;;;;;;;;;;;;;;5010776;28;20042;-58
2022/06/12 02:36:41;;;;;;;0.00;0.00;;;;;;;;;;5010100;28;44643;-58
2022/06/12 02:39:07;;;;;;;;;;;;;;;;;;5011470;28;20066;-58
2022/06/12 02:41:36;;;;;;;0.00;0.00;;;;;;;;;;5010177;28;43672;-59
2022/06/12 02:44:11;;;;;;;0.00;0.00;;;;;;;;;;5009969;28;20058;-58
2022/06/12 02:46:49;;;;;;;0.00;0.00;;;;;;;;;;5010401;28;20085;-59
2022/06/12 02:49:16;;;;;;;0.00;0.00;;;;;;;;;;5010340;28;20639;-59
2022/06/12 02:51:43;;;;;;;0.00;0.00;;;;;;;;;;5010120;28;20059;-58
2022/06/12 02:54:19;;;;;;;0.00;0.00;;;;;;;;;;5010976;28;20626;-59
2022/06/12 02:56:45;;;;;;;0.00;0.00;;;;;;;;;;5010102;28;20571;-58
2022/06/12 02:59:20;;;;;;;0.00;0.00;;;;;;;;;;5009778;28;20062;-59
2022/06/12 03:01:50;;;;;;;0.00;0.00;;;;;;;;;;5010103;28;20081;-57
2022/06/12 03:04:23;;;;;;;0.00;0.00;;;;;;;;;;5010553;28;20094;-58
2022/06/12 03:06:50;;;;;;;0.00;0.00;;;;;;;;;;5010679;28;20054;-59
2022/06/12 03:09:17;;;;;;;0.00;0.00;;;;;;;;;;5008586;28;20520;-59
2022/06/12 03:11:44;;;;;;;0.00;0.00;;;;;;;;;;5010353;28;20058;-59
2022/06/12 03:14:13;;;;;;;0.00;0.00;;;;;;;;;;5009740;28;20082;-58
2022/06/12 03:16:41;;;;;;;0.00;0.00;;;;;;;;;;5010342;28;20117;-58
2022/06/12 03:19:09;;;;;;;;;;;;;;;;;;5010760;28;20054;-59
2022/06/12 03:21:41;;;;;;;0.00;0.00;;;;;;;;;;5008947;28;45124;-59
2022/06/12 03:24:08;;;;;;;0.00;0.00;;;;;;;;;;5009207;28;20105;-59
2022/06/12 03:26:38;;;;;;;0.00;0.00;;;;;;;;;;5010349;28;20576;-56
2022/06/12 03:29:16;;;;;;;0.00;0.00;;;;;;;;;;5009559;28;20055;-58
2022/06/12 03:31:47;;;;;;;0.00;0.00;;;;;;;;;;5010313;28;20062;-58
2022/06/12 03:34:20;;;;;;;0.00;0.00;;;;;;;;;;5008738;28;20057;-59
2022/06/12 03:37:01;;;;;;;1.00;0.40;;;;;;;;;;5009725;28;20504;-59
2022/06/12 03:39:33;;;;;;;0.00;0.00;;;;;;;;;;5009839;28;20058;-59
2022/06/12 03:42:07;;;;;;;0.00;0.00;;;;;;;;;;5009040;28;20058;-59
2022/06/12 03:44:37;;;;;;;0.00;0.00;;;;;;;;;;5009943;28;20528;-59
2022/06/12 03:47:15;;;;;;;0.00;0.00;;;;;;;;;;5009163;28;20113;-59
2022/06/12 03:49:47;;;;;;;0.00;0.00;;;;;;;;;;5009327;28;20532;-58
2022/06/12 03:52:25;;;;;;;0.00;0.00;;;;;;;;;;5009603;28;20062;-58
2022/06/12 03:55:01;;;;;;;0.00;0.00;;;;;;;;;;5009291;28;20054;-59
2022/06/12 03:57:50;;;;;;;0.00;0.00;;;;;;;;;;5010122;28;20619;-59
2022/06/12 04:00:17;;;;;;;0.00;0.00;;;;;;;;;;5008742;28;20702;-59
2022/06/12 04:02:46;;;;;;;0.00;0.00;;;;;;;;;;5009412;28;20057;-59
2022/06/12 04:05:23;;;;;;;0.00;0.00;;;;;;;;;;5009165;28;20133;-59
2022/06/12 04:07:51;;;;;;;0.00;0.00;;;;;;;;;;5009370;28;20089;-59
2022/06/12 04:10:20;;;;;;;0.00;0.00;;;;;;;;;;5009296;28;20054;-58
2022/06/12 04:12:46;;;;;;;0.00;0.00;;;;;;;;;;5008997;28;20113;-59
2022/06/12 04:15:24;;;;;;;0.00;0.00;;;;;;;;;;5008382;28;20111;-58
2022/06/12 04:17:51;;;;;;;;;;;;;;;;;;5009367;28;20555;-59
2022/06/12 04:20:19;;;;;;;0.00;0.00;;;;;;;;;;5011972;28;45700;-59
2022/06/12 04:22:51;;;;;;;0.00;0.00;;;;;;;;;;5009388;28;20509;-59
2022/06/12 04:25:36;;;;;;;0.00;0.00;;;;;;;;;;5008505;28;20054;-59
2022/06/12 04:28:05;;;;;;;0.00;0.00;;;;;;;;;;5009155;28;20063;-59
2022/06/12 04:30:31;;;;;;;;;;;;;;;;;;5009118;28;20484;-59
2022/06/12 04:33:15;;;;;;;0.00;0.00;;;;;;;;;;5008823;28;44650;-59
2022/06/12 04:35:47;;;;;;;0.00;0.00;;;;;;;;;;5008856;28;20058;-58
2022/06/12 04:38:13;;;;;;;0.00;0.00;;;;;;;;;;5009085;28;20086;-58
2022/06/12 04:40:40;;;;;;;0.10;0.10;;;;;;;;;;5008067;28;20534;-57
2022/06/12 04:43:06;;;;;;;0.00;0.00;;;;;;;;;;5008508;28;20093;-58
2022/06/12 04:45:33;;;;;;;0.00;0.00;;;;;;;;;;5008678;28;20062;-58
2022/06/12 04:48:00;;;;;;;0.00;0.00;;;;;;;;;;5008052;28;20113;-58
2022/06/12 04:50:26;;;;;;;0.00;0.00;;;;;;;;;;5007492;28;20140;-58
2022/06/12 04:52:52;;;;;;;0.00;0.00;;;;;;;;;;5008847;28;20109;-58
2022/06/12 04:55:19;;;;;;;0.00;0.00;;;;;;;;;;5008504;28;20055;-58
2022/06/12 04:57:45;;;;;;;0.08;0.08;;;;;;;;;;5008727;28;20117;-58
2022/06/12 05:00:12;;;;;;;0.00;0.00;;;;;;;;;;5007511;28;20501;-58
2022/06/12 05:02:38;;;;;;;0.05;0.05;;;;;;;;;;5009123;28;20054;-57
2022/06/12 05:05:05;;;;;;;0.00;0.00;;;;;;;;;;5008633;28;20054;-58
2022/06/12 05:07:32;;;;;;;1.77;0.32;;;;;;;;;;5007931;28;20529;-58
2022/06/12 05:09:58;;;;;;;0.00;0.00;;;;;;;;;;5007726;28;20101;-58
2022/06/12 05:12:24;;;;;;;0.00;0.00;;;;;;;;;;5008598;28;20093;-58
2022/06/12 05:14:51;;;;;;;0.00;0.00;;;;;;;;;;5007768;28;20086;-58
2022/06/12 05:17:18;;;;;;;0.00;0.00;;;;;;;;;;5008810;28;20691;-57
2022/06/12 05:19:45;;;;;;;0.00;0.00;;;;;;;;;;5008671;28;20058;-58
2022/06/12 05:22:12;;;;;;;0.00;0.00;;;;;;;;;;5007988;28;20109;-58
2022/06/12 05:24:39;;;;;;;0.00;0.00;;;;;;;;;;5008778;28;20054;-58
2022/06/12 05:27:07;;;;;;;0.00;0.00;;;;;;;;;;5011490;28;20082;-58
2022/06/12 05:29:35;;;;;;;0.00;0.00;;;;;;;;;;5011350;28;20050;-58
2022/06/12 05:32:02;;;;;;;0.40;0.28;;;;;;;;;;5011602;28;20058;-58
2022/06/12 05:34:29;;;;;;;0.00;0.00;;;;;;;;;;5010758;28;20477;-57
2022/06/12 05:36:56;;;;;;;0.00;0.00;;;;;;;;;;5011725;28;20266;-57
2022/06/12 05:39:23;;;;;;;0.00;0.00;;;;;;;;;;5011815;28;20109;-59
2022/06/12 05:41:50;;;;;;;0.00;0.00;;;;;;;;;;5010794;28;20677;-58
2022/06/12 05:44:17;;;;;;;1.17;0.20;;;;;;;;;;5011150;28;20066;-58
2022/06/12 05:46:44;;;;;;;0.00;0.00;;;;;;;;;;5011796;28;20066;-58
2022/06/12 05:49:11;;;;;;;0.00;0.00;;;;;;;;;;5010934;28;20065;-56
2022/06/12 05:51:37;;;;;;;0.00;0.00;;;;;;;;;;5011154;28;20062;-57
2022/06/12 05:54:08;;;;;;;0.00;0.00;;;;;;;;;;5012046;28;20144;-58
2022/06/12 05:56:35;;;;;;;0.00;0.00;;;;;;;;;;5010880;28;20058;-57
2022/06/12 05:59:02;;;;;;;0.00;0.00;;;;;;;;;;5011231;28;20121;-58
2022/06/12 06:01:29;;;;;;;0.43;0.43;;;;;;;;;;5011798;28;20117;-58
2022/06/12 06:03:56;;;;;;;0.00;0.00;;;;;;;;;;5009755;28;20113;-58
2022/06/12 06:06:29;;;;;;;0.00;0.00;;;;;;;;;;5011656;28;20058;-58
2022/06/12 06:08:59;;;;;;;0.00;0.00;;;;;;;;;;5010847;28;20141;-58
2022/06/12 06:11:27;;;;;;;0.00;0.00;;;;;;;;;;5011258;28;20124;-58
2022/06/12 06:13:53;;;;;;;0.00;0.00;;;;;;;;;;5011142;28;20062;-58
2022/06/12 06:16:20;;;;;;;0.00;0.00;;;;;;;;;;5011174;28;20086;-58
2022/06/12 06:18:47;;;;;;;0.15;0.15;;;;;;;;;;5010996;28;20108;-58
2022/06/12 06:21:15;;;;;;;0.00;0.00;;;;;;;;;;5015009;28;20089;-58
2022/06/12 06:23:47;;;;;;;0.00;0.00;;;;;;;;;;5011366;28;20057;-58
2022/06/12 06:26:13;;;;;;;0.00;0.00;;;;;;;;;;5011039;28;20066;-58
2022/06/12 06:28:39;;;;;;;0.00;0.00;;;;;;;;;;5010206;28;20081;-58
2022/06/12 06:31:06;;;;;;;0.00;0.00;;;;;;;;;;5010376;28;20109;-58
2022/06/12 06:33:33;;;;;;;0.00;0.00;;;;;;;;;;5011009;28;20062;-58
2022/06/12 06:36:06;;;;;;;0.00;0.00;;;;;;;;;;5010429;28;20517;-57
2022/06/12 06:38:32;;;;;;;0.00;0.00;;;;;;;;;;5010441;28;20082;-57
2022/06/12 06:40:59;;;;;;;0.00;0.00;;;;;;;;;;5010549;28;20122;-57
2022/06/12 06:43:25;;;;;;;0.00;0.00;;;;;;;;;;5010422;28;20113;-58
2022/06/12 06:48:37;;;;;;;0.00;0.00;;;;;;;;;;5010289;28;20050;-58
2022/06/12 06:51:03;;;;;;;0.00;0.00;;;;;;;;;;5010619;28;20054;-58
2022/06/12 06:53:30;;;;;;;0.32;0.13;;;;;;;;;;5010073;28;20055;-58
2022/06/12 06:55:56;;;;;;;0.00;0.00;;;;;;;;;;5010058;28;20081;-58
2022/06/12 06:58:24;;;;;;;0.00;0.00;;;;;;;;;;5010932;28;20119;-58
2022/06/12 07:00:51;;;;;;;0.00;0.00;;;;;;;;;;5010257;28;20509;-58
2022/06/12 07:03:17;;;;;;;0.00;0.00;;;;;;;;;;5010194;28;20058;-58
2022/06/12 07:05:44;;;;;;;0.00;0.00;;;;;;;;;;5010778;28;20058;-58
2022/06/12 07:08:11;;;;;;;0.00;0.00;;;;;;;;;;5009792;28;20104;-58
2022/06/12 07:10:39;;;;;;;0.00;0.00;;;;;;;;;;5010739;28;20149;-58
2022/06/12 07:13:06;;;;;;;0.00;0.00;;;;;;;;;;5009938;28;20501;-58
2022/06/12 07:15:33;;;;;;;0.00;0.00;;;;;;;;;;5009715;28;20086;-58
2022/06/12 07:18:00;;;;;;;0.00;0.00;;;;;;;;;;5009696;28;20043;-58
2022/06/12 07:20:28;;;;;;;0.00;0.00;;;;;;;;;;5010383;28;20059;-57
2022/06/12 07:22:54;;;;;;;;;;;;;;;;;;5010092;28;20521;-58
2022/06/12 07:25:20;;;;;;;0.00;0.00;;;;;;;;;;5009028;28;45696;-57
2022/06/12 07:27:47;;;;;;;0.00;0.00;;;;;;;;;;5009483;28;20058;-57
2022/06/12 07:30:16;;;;;;;0.00;0.00;;;;;;;;;;5009594;28;20055;-58
2022/06/12 07:32:42;;;;;;;0.00;0.00;;;;;;;;;;5009863;28;20058;-58
2022/06/12 07:35:10;;;;;;;0.00;0.00;;;;;;;;;;5009537;28;20058;-58
2022/06/12 07:37:37;;;;;;;0.00;0.00;;;;;;;;;;5009605;28;20567;-58
2022/06/12 07:40:04;;;;;;;0.00;0.00;;;;;;;;;;5009289;28;20059;-58
2022/06/12 07:42:31;;;;;;;0.00;0.00;;;;;;;;;;5009036;28;20058;-58
2022/06/12 07:44:57;;;;;;;0.00;0.00;;;;;;;;;;5009767;28;20062;-57
2022/06/12 07:47:24;;;;;;;0.00;0.00;;;;;;;;;;5009797;28;20059;-59
2022/06/12 07:49:51;;;;;;;1.75;1.17;;;;;;;;;;5008697;28;20046;-58
2022/06/12 07:52:18;;;;;;;0.20;0.20;;;;;;;;;;5007808;28;20062;-57
2022/06/12 07:54:48;;;;;;;0.00;0.00;;;;;;;;;;5008919;28;20055;-58
2022/06/12 07:57:15;;;;;;;0.00;0.00;;;;;;;;;;5009318;28;20493;-57
2022/06/12 07:59:41;;;;;;;0.00;0.00;;;;;;;;;;5009235;28;20054;-58
2022/06/12 08:02:08;;;;;;;0.13;0.10;;;;;;;;;;5009249;28;20046;-59
2022/06/12 08:04:35;;;;;;;0.00;0.00;;;;;;;;;;5009940;28;20575;-58
2022/06/12 08:07:01;;;;;;;0.28;0.15;;;;;;;;;;5008916;28;20058;-58
2022/06/12 08:09:27;;;;;;;0.00;0.00;;;;;;;;;;5008336;28;20555;-58
2022/06/12 08:11:54;;;;;;;0.20;0.13;;;;;;;;;;5009795;28;20058;-57
2022/06/12 08:14:21;;;;;;;0.00;0.00;;;;;;;;;;5009387;28;20508;-58
2022/06/12 08:16:48;;;;;;;0.77;0.05;;;;;;;;;;5009194;28;20046;-58
2022/06/12 08:22:00;;;;;;;0.00;0.00;;;;;;;;;;5012416;28;20117;-57
2022/06/12 08:24:27;;;;;;;0.20;0.03;;;;;;;;;;5009284;28;20054;-58
2022/06/12 08:26:54;;;;;;;0.00;0.00;;;;;;;;;;5008634;28;20600;-58
2022/06/12 08:29:22;;;;;;;0.00;0.00;;;;;;;;;;5009372;28;20077;-58
2022/06/12 08:31:51;;;;;;;0.17;0.10;;;;;;;;;;5008623;28;20058;-58
2022/06/12 08:34:25;;;;;;;0.05;0.05;;;;;;;;;;5008818;28;20151;-58
2022/06/12 08:36:53;;;;;;;0.10;0.10;;;;;;;;;;5008848;28;20501;-58
2022/06/12 08:39:20;;;;;;;0.00;0.00;;;;;;;;;;5008755;28;20113;-58
2022/06/12 08:42:25;;;;;;;0.03;0.03;;;;;;;;;;5008792;28;20497;-58
2022/06/12 08:44:51;;;;;;;0.10;0.08;;;;;;;;;;5006117;28;20128;-60
2022/06/12 08:47:22;;;;;;;0.00;0.00;;;;;;;;;;5006405;28;20059;-58
2022/06/12 08:50:07;;;;;;;0.00;0.00;;;;;;;;;;5007421;28;20484;-57
2022/06/12 08:52:52;;;;;;;0.00;0.00;;;;;;;;;;5008201;28;20509;-58
2022/06/12 08:55:31;;;;;;;0.00;0.00;;;;;;;;;;5008929;28;20058;-58
2022/06/12 08:58:04;;;;;;;0.00;0.00;;;;;;;;;;5008594;28;20058;-58
2022/06/12 09:00:35;;;;;;;0.22;0.22;;;;;;;;;;5009518;28;20156;-59
2022/06/12 09:03:06;;;;;;;0.10;0.10;;;;;;;;;;5011860;28;20042;-58
2022/06/12 09:05:36;;;;;;;0.00;0.00;;;;;;;;;;5011999;28;20472;-58
2022/06/12 09:08:09;;;;;;;0.10;0.00;;;;;;;;;;5012552;28;21347;-59
2022/06/12 09:10:42;;;;;;;0.00;0.00;;;;;;;;;;5010701;28;20054;-58
2022/06/12 09:13:25;;;;;;;0.25;0.25;;;;;;;;;;5012130;28;20120;-58
2022/06/12 09:15:59;;;;;;;0.00;0.00;;;;;;;;;;5012022;28;20062;-58
2022/06/12 09:18:33;;;;;;;0.80;0.40;;;;;;;;;;5011655;28;20105;-58
2022/06/12 09:21:15;;;;;;;0.57;0.38;;;;;;;;;;5011374;28;20066;-59
2022/06/12 09:23:48;;;;;;;0.00;0.00;;;;;;;;;;5010786;28;20086;-58
2022/06/12 09:26:33;;;;;;;0.28;0.10;;;;;;;;;;5011676;28;20117;-57
2022/06/12 09:29:05;;;;;;;0.00;0.00;;;;;;;;;;5012022;28;20512;-58
2022/06/12 09:31:52;;;;;;;0.00;0.00;;;;;;;;;;5011069;28;20109;-58
2022/06/12 09:34:30;;;;;;;0.00;0.00;;;;;;;;;;5011361;28;20058;-58
2022/06/12 09:36:59;;;;;;;0.00;0.00;;;;;;;;;;5012186;28;20103;-58
2022/06/12 09:39:39;;;;;;;0.00;0.00;;;;;;;;;;5011206;28;20109;-58
2022/06/12 09:42:15;;;;;;;0.00;0.00;;;;;;;;;;5011527;28;20113;-58
2022/06/12 09:44:49;;;;;;;0.00;0.00;;;;;;;;;;5011323;28;20105;-58
2022/06/12 09:47:25;;;;;;;0.00;0.00;;;;;;;;;;5011378;28;20109;-58
2022/06/12 09:50:16;;;;;;;0.00;0.00;;;;;;;;;;5011061;28;20117;-58
2022/06/12 09:52:49;;;;;;;0.00;0.00;;;;;;;;;;5011359;28;20101;-59
2022/06/12 09:55:22;;;;;;;0.00;0.00;;;;;;;;;;5011611;28;20054;-58
2022/06/12 09:58:12;;;;;;;0.00;0.00;;;;;;;;;;5011393;28;20058;-59
2022/06/12 10:00:44;;;;;;;0.05;0.00;;;;;;;;;;5010927;28;20061;-58
2022/06/12 10:03:25;;;;;;;0.00;0.00;;;;;;;;;;5011205;28;20047;-59
2022/06/12 10:05:54;;;;;;;0.00;0.00;;;;;;;;;;5010069;28;20050;-58
2022/06/12 10:08:20;;;;;;;0.00;0.00;;;;;;;;;;5011171;28;20055;-60
2022/06/12 10:10:47;;;;;;;0.00;0.00;;;;;;;;;;5010801;28;20050;-59
2022/06/12 10:13:17;;;;;;;1.65;0.98;;;;;;;;;;5009871;28;20579;-58
2022/06/12 10:15:52;;;;;;;0.00;0.00;;;;;;;;;;5010580;28;20046;-62
2022/06/12 10:18:27;;;;;;;0.10;0.00;;;;;;;;;;5011350;28;20109;-59
2022/06/12 10:21:00;;;;;;;0.55;0.10;;;;;;;;;;5011325;28;20108;-59
2022/06/12 10:23:27;;;;;;;0.00;0.00;;;;;;;;;;5013722;28;20058;-58
2022/06/12 10:25:55;;;;;;;0.00;0.00;;;;;;;;;;5010517;28;20109;-59
2022/06/12 10:28:21;;;;;;;;;;;;;;;;;;5010717;28;20144;-59
2022/06/12 10:31:00;;;;;;;0.13;0.13;;;;;;;;;;5008835;28;45063;-59
2022/06/12 10:33:30;;;;;;;0.00;0.00;;;;;;;;;;5009214;28;20620;-59
2022/06/12 10:35:58;;;;;;;0.00;0.00;;;;;;;;;;5009720;28;20061;-58
2022/06/12 10:38:26;;;;;;;0.15;0.10;;;;;;;;;;5009210;28;20059;-59
2022/06/12 10:40:52;;;;;;;;;;;;;;;;;;5009935;28;20054;-59
2022/06/12 10:43:24;;;;;;;0.00;0.00;;;;;;;;;;5008432;28;44255;-58
2022/06/12 10:45:56;;;;;;;0.00;0.00;;;;;;;;;;5009623;28;20058;-58
2022/06/12 10:48:29;;;;;;;0.52;0.38;;;;;;;;;;5010302;28;20058;-58
2022/06/12 10:50:58;;;;;;;0.05;0.05;;;;;;;;;;5008429;28;20113;-58
2022/06/12 10:53:26;;;;;;;0.22;0.08;;;;;;;;;;5009434;28;20152;-59
2022/06/12 10:56:16;;;;;;;0.00;0.00;;;;;;;;;;5009553;28;20128;-58
2022/06/12 10:58:55;;;;;;;0.10;0.00;;;;;;;;;;5009291;28;20058;-60
2022/06/12 11:01:32;;;;;;;0.00;0.00;;;;;;;;;;5009556;28;20046;-58
2022/06/12 11:04:11;;;;;;;0.10;0.10;;;;;;;;;;5008825;28;20133;-58
2022/06/12 11:06:47;;;;;;;0.00;0.00;;;;;;;;;;5008441;28;20101;-58
2022/06/12 11:09:22;;;;;;;0.05;0.05;;;;;;;;;;5009229;28;20054;-58
2022/06/12 11:11:51;;;;;;;0.00;0.00;;;;;;;;;;5009762;28;20062;-59
2022/06/12 11:14:28;;;;;;;0.00;0.00;;;;;;;;;;5009660;28;20093;-58
2022/06/12 11:16:54;;;;;;;0.00;0.00;;;;;;;;;;5009364;28;20058;-58
2022/06/12 11:19:34;;;;;;;0.00;0.00;;;;;;;;;;5008268;28;20125;-58
2022/06/12 11:22:04;;;;;;;0.00;0.00;;;;;;;;;;5008725;28;20054;-59
2022/06/12 11:24:48;;;;;;;0.10;0.05;;;;;;;;;;5008882;28;20043;-58
2022/06/12 11:27:23;;;;;;;0.00;0.00;;;;;;;;;;5008684;28;20083;-58
2022/06/12 11:29:56;;;;;;;0.00;0.00;;;;;;;;;;5009363;28;20117;-58
2022/06/12 11:32:25;;;;;;;0.00;0.00;;;;;;;;;;5007806;28;20051;-58
2022/06/12 11:35:10;;;;;;;0.00;0.00;;;;;;;;;;5009239;28;20050;-59
2022/06/12 11:37:46;;;;;;;0.00;0.00;;;;;;;;;;5009094;28;20112;-58
2022/06/12 11:40:25;;;;;;;0.30;0.10;;;;;;;;;;5008531;28;20109;-58
2022/06/12 11:43:00;;;;;;;0.17;0.10;;;;;;;;;;5008745;28;20058;-58
2022/06/12 11:46:05;;;;;;;0.00;0.00;;;;;;;;;;5008226;28;20153;-57
2022/06/12 11:48:50;;;;;;;0.00;0.00;;;;;;;;;;5008334;28;20086;-58
2022/06/12 11:51:36;;;;;;;0.00;0.00;;;;;;;;;;5007905;28;20117;-58
2022/06/12 11:54:05;;;;;;;0.00;0.00;;;;;;;;;;5009026;28;20085;-58
2022/06/12 11:56:42;;;;;;;0.00;0.00;;;;;;;;;;5008750;28;20062;-58
2022/06/12 11:59:27;;;;;;;0.00;0.00;;;;;;;;;;5008354;28;20054;-58
2022/06/12 12:01:59;;;;;;;0.00;0.00;;;;;;;;;;5009078;28;20058;-58
2022/06/12 12:04:28;;;;;;;0.00;0.00;;;;;;;;;;5007963;28;20061;-58
2022/06/12 12:07:07;;;;;;;0.00;0.00;;;;;;;;;;5008949;28;20054;-59
2022/06/12 12:09:40;;;;;;;0.00;0.00;;;;;;;;;;5007866;28;20050;-58
2022/06/12 12:12:11;;;;;;;0.32;0.20;;;;;;;;;;5007670;28;20497;-58
2022/06/12 12:14:41;;;;;;;0.10;0.10;;;;;;;;;;5008982;28;20074;-59
2022/06/12 12:17:09;;;;;;;0.15;0.03;;;;;;;;;;5008350;28;20085;-59
2022/06/12 12:19:36;;;;;;;0.00;0.00;;;;;;;;;;5008506;28;20082;-58
2022/06/12 12:22:02;;;;;;;0.00;0.00;;;;;;;;;;5007696;28;20117;-58
2022/06/12 12:24:31;;;;;;;0.30;0.28;;;;;;;;;;5011561;28;20497;-59
2022/06/12 12:26:59;;;;;;;0.00;0.00;;;;;;;;;;5007881;28;20062;-58
2022/06/12 12:29:29;;;;;;;0.00;0.00;;;;;;;;;;5007933;28;20105;-58
2022/06/12 12:31:56;;;;;;;0.10;0.03;;;;;;;;;;5008039;28;20093;-59
2022/06/12 12:34:23;;;;;;;0.00;0.00;;;;;;;;;;5008169;28;20517;-58
2022/06/12 12:42:27;;;;;;;0.00;0.00;;;;;;;;;;5011296;28;20054;-59
2022/06/12 12:44:54;;;;;;;0.00;0.00;;;;;;;;;;5011786;28;20054;-58
2022/06/12 12:47:21;;;;;;;0.20;0.20;;;;;;;;;;5011808;28;20121;-58
2022/06/12 12:49:48;;;;;;;0.00;0.00;;;;;;;;;;5010751;28;20066;-58
2022/06/12 12:52:16;;;;;;;0.05;0.05;;;;;;;;;;5010624;28;20532;-58
2022/06/12 12:54:45;;;;;;;0.00;0.00;;;;;;;;;;5011580;28;20058;-58
2022/06/12 12:57:12;;;;;;;0.00;0.00;;;;;;;;;;5010744;28;20137;-58
2022/06/12 12:59:50;;;;;;;0.00;0.00;;;;;;;;;;5011819;28;20113;-58
2022/06/12 13:02:16;;;;;;;0.00;0.00;;;;;;;;;;5010813;28;20058;-59
2022/06/12 13:04:43;;;;;;;0.00;0.00;;;;;;;;;;5011928;28;20055;-58
2022/06/12 13:07:09;;;;;;;0.00;0.00;;;;;;;;;;5011381;28;20109;-58
2022/06/12 13:09:36;;;;;;;0.00;0.00;;;;;;;;;;5011005;28;20059;-58
2022/06/12 13:12:08;;;;;;;1.85;1.10;;;;;;;;;;5009739;28;20058;-58
2022/06/12 13:14:40;;;;;;;0.00;0.00;;;;;;;;;;5010630;28;20051;-58
2022/06/12 13:17:11;;;;;;;0.00;0.00;;;;;;;;;;5010751;28;20107;-58
2022/06/12 13:19:47;;;;;;;0.00;0.00;;;;;;;;;;5011293;28;20117;-58
2022/06/12 13:22:46;;;;;;;0.10;0.10;;;;;;;;;;5011029;28;20050;-59
2022/06/12 13:25:15;;;;;;;0.00;0.00;;;;;;;;;;5008888;28;20059;-58
2022/06/12 13:27:55;;;;;;;0.00;0.00;;;;;;;;;;5010888;28;20132;-58
2022/06/12 13:30:27;;;;;;;0.03;0.03;;;;;;;;;;5010798;28;20090;-58
2022/06/12 13:33:05;;;;;;;0.00;0.00;;;;;;;;;;5010979;28;20058;-58
2022/06/12 13:35:42;;;;;;;0.00;0.00;;;;;;;;;;5011282;28;20562;-58
2022/06/12 13:38:17;;;;;;;6.50;1.97;;;;;;;;;;5010757;28;20125;-58
2022/06/12 13:40:44;;;;;;;0.00;0.00;;;;;;;;;;5009293;28;20745;-58
2022/06/12 13:43:12;;;;;;;0.00;0.00;;;;;;;;;;5010040;28;20050;-58
2022/06/12 13:45:49;;;;;;;0.30;0.30;;;;;;;;;;5010753;28;20535;-58
2022/06/12 13:48:20;;;;;;;0.00;0.00;;;;;;;;;;5009877;28;20578;-58
2022/06/12 13:50:49;;;;;;;0.00;0.00;;;;;;;;;;5010761;28;20093;-59
2022/06/12 13:53:17;;;;;;;0.03;0.03;;;;;;;;;;5009567;28;20078;-58
2022/06/12 13:55:46;;;;;;;0.32;0.32;;;;;;;;;;5010409;28;20133;-58
2022/06/12 13:58:22;;;;;;;1.92;0.60;;;;;;;;;;5011075;28;20137;-58
2022/06/12 14:00:59;;;;;;;0.47;0.22;;;;;;;;;;5010952;28;20117;-59
2022/06/12 14:03:25;;;;;;;0.10;0.10;;;;;;;;;;5010832;28;20058;-57
2022/06/12 14:05:55;;;;;;;0.03;0.00;;;;;;;;;;5009256;28;20063;-59
2022/06/12 14:08:22;;;;;;;2.15;1.23;;;;;;;;;;5010844;28;20054;-58
2022/06/12 14:10:49;;;;;;;0.23;0.10;;;;;;;;;;5011213;28;20086;-59
2022/06/12 14:13:36;;;;;;;0.10;0.10;;;;;;;;;;5011461;28;20054;-58
2022/06/12 14:16:07;;;;;;;0.10;0.10;;;;;;;;;;5010539;28;20137;-58
2022/06/12 14:18:33;;;;;;;0.00;0.00;;;;;;;;;;5011392;28;20477;-57
2022/06/12 14:21:02;;;;;;;0.00;0.00;;;;;;;;;;5011268;28;20126;-58
2022/06/12 14:23:29;;;;;;;0.20;0.20;;;;;;;;;;5013406;28;20062;-58
2022/06/12 14:26:10;;;;;;;0.47;0.22;;;;;;;;;;5012027;28;20062;-58
2022/06/12 14:28:37;;;;;;;1.80;0.52;;;;;;;;;;5010759;28;20113;-57
2022/06/12 14:31:25;;;;;;;0.00;0.00;;;;;;;;;;5009787;28;20054;-58
2022/06/12 14:34:00;;;;;;;0.00;0.00;;;;;;;;;;5010345;28;20153;-58
2022/06/12 14:36:36;;;;;;;0.10;0.10;;;;;;;;;;5011005;28;20093;-58
2022/06/12 14:39:22;;;;;;;0.00;0.00;;;;;;;;;;5010279;28;20062;-58
2022/06/12 14:41:51;;;;;;;0.10;0.10;;;;;;;;;;5010096;28;20057;-58
2022/06/12 14:44:18;;;;;;;0.00;0.00;;;;;;;;;;5010681;28;20254;-58
2022/06/12 14:46:45;;;;;;;0.17;0.10;;;;;;;;;;5010658;28;20153;-58
2022/06/12 14:49:19;;;;;;;0.00;0.00;;;;;;;;;;5010034;28;20117;-58
2022/06/12 14:51:46;;;;;;;0.20;0.20;;;;;;;;;;5010452;28;20113;-58
2022/06/12 14:54:13;;;;;;;0.30;0.30;;;;;;;;;;5010127;28;20082;-58
2022/06/12 14:56:42;;;;;;;0.83;0.63;;;;;;;;;;5010059;28;20058;-58
2022/06/12 14:59:17;;;;;;;0.00;0.00;;;;;;;;;;5010708;28;20062;-57
2022/06/12 15:01:44;;;;;;;0.45;0.38;;;;;;;;;;5009647;28;20492;-57
2022/06/12 15:04:11;;;;;;;0.03;0.03;;;;;;;;;;5010308;28;20058;-58
2022/06/12 15:06:38;;;;;;;0.10;0.10;;;;;;;;;;5010815;28;20456;-58
2022/06/12 15:09:04;;;;;;;0.80;0.40;;;;;;;;;;5009694;28;20054;-58
2022/06/12 15:11:30;;;;;;;0.05;0.05;;;;;;;;;;5010514;28;20497;-58
2022/06/12 15:14:02;;;;;;;0.10;0.10;;;;;;;;;;5009575;28;20059;-59
2022/06/12 15:16:29;;;;;;;1.10;0.47;;;;;;;;;;5013671;28;20047;-58
2022/06/12 15:18:56;;;;;;;0.00;0.00;;;;;;;;;;5026161;28;20073;-58
2022/06/12 15:21:27;;;;;;;0.10;0.10;;;;;;;;;;5029208;28;20057;-57
2022/06/12 15:23:53;;;;;;;0.00;0.00;;;;;;;;;;5029726;28;20054;-58